sensor_id;sensor_type;location;lat;lon;timestamp;temperature;humidity
41168;DHT22;26906;45.658;9.272;2024-01-27T08:05:08;4.00;99.90
41168;DHT22;26906;45.658;9.272;2024-01-27T08:10:04;4.30;99.90
41168;DHT22;26906;45.658;9.272;2024-01-27T08:12:30;4.50;99.90
41168;DHT22;26906;45.658;9.272;2024-01-27T08:14:56;4.60;99.90
41168;DHT22;26906;45.658;9.272;2024-01-27T08:17:21;4.70;99.90
41168;DHT22;26906;45.658;9.272;2024-01-27T08:19:47;4.80;99.90
41168;DHT22;26906;45.658;9.272;2024-01-27T08:22:13;5.00;99.90
41168;DHT22;26906;45.658;9.272;2024-01-27T08:24:39;5.10;99.90
41168;DHT22;26906;45.658;9.272;2024-01-27T08:27:05;5.30;99.90
41168;DHT22;26906;45.658;9.272;2024-01-27T08:29:31;5.50;99.90
41168;DHT22;26906;45.658;9.272;2024-01-27T08:31:56;5.50;99.90
41168;DHT22;26906;45.658;9.272;2024-01-27T08:34:22;5.60;99.90
41168;DHT22;26906;45.658;9.272;2024-01-27T08:36:48;5.70;99.90
41168;DHT22;26906;45.658;9.272;2024-01-27T08:39:13;5.80;99.90
41168;DHT22;26906;45.658;9.272;2024-01-27T08:41:39;5.90;99.90
41168;DHT22;26906;45.658;9.272;2024-01-27T08:44:05;6.00;99.90
41168;DHT22;26906;45.658;9.272;2024-01-27T08:46:30;6.20;99.90
41168;DHT22;26906;45.658;9.272;2024-01-27T08:48:56;6.30;99.90
41168;DHT22;26906;45.658;9.272;2024-01-27T08:51:22;6.40;99.90
41168;DHT22;26906;45.658;9.272;2024-01-27T08:53:47;6.50;99.90
41168;DHT22;26906;45.658;9.272;2024-01-27T08:56:16;6.60;99.90
41168;DHT22;26906;45.658;9.272;2024-01-27T08:58:46;6.80;99.90
41168;DHT22;26906;45.658;9.272;2024-01-27T09:01:18;6.90;99.90
41168;DHT22;26906;45.658;9.272;2024-01-27T09:03:44;7.30;99.90
41168;DHT22;26906;45.658;9.272;2024-01-27T09:06:10;7.40;99.90
41168;DHT22;26906;45.658;9.272;2024-01-27T09:08:36;7.40;99.90
41168;DHT22;26906;45.658;9.272;2024-01-27T09:11:03;7.50;99.90
41168;DHT22;26906;45.658;9.272;2024-01-27T09:13:28;7.70;99.90
41168;DHT22;26906;45.658;9.272;2024-01-27T09:15:56;7.80;99.90
41168;DHT22;26906;45.658;9.272;2024-01-27T09:18:22;8.10;99.90
41168;DHT22;26906;45.658;9.272;2024-01-27T09:20:48;8.20;99.90
41168;DHT22;26906;45.658;9.272;2024-01-27T09:23:13;8.40;99.90
41168;DHT22;26906;45.658;9.272;2024-01-27T09:25:43;8.60;99.90
41168;DHT22;26906;45.658;9.272;2024-01-27T09:28:09;8.80;99.90
41168;DHT22;26906;45.658;9.272;2024-01-27T09:30:35;9.00;99.90
41168;DHT22;26906;45.658;9.272;2024-01-27T09:33:04;9.30;99.90
41168;DHT22;26906;45.658;9.272;2024-01-27T09:35:30;9.50;99.90
41168;DHT22;26906;45.658;9.272;2024-01-27T09:37:55;9.70;99.90
41168;DHT22;26906;45.658;9.272;2024-01-27T09:40:21;9.90;99.90
41168;DHT22;26906;45.658;9.272;2024-01-27T09:42:51;10.00;99.90
41168;DHT22;26906;45.658;9.272;2024-01-27T09:45:22;10.10;99.90
41168;DHT22;26906;45.658;9.272;2024-01-27T09:47:48;10.30;99.90
41168;DHT22;26906;45.658;9.272;2024-01-27T09:50:14;10.40;99.90
41168;DHT22;26906;45.658;9.272;2024-01-27T09:52:42;10.60;99.90
41168;DHT22;26906;45.658;9.272;2024-01-27T09:55:10;10.70;99.90
41168;DHT22;26906;45.658;9.272;2024-01-27T09:57:40;10.80;99.90
41168;DHT22;26906;45.658;9.272;2024-01-27T10:00:10;10.80;99.90
41168;DHT22;26906;45.658;9.272;2024-01-27T10:02:39;10.90;99.90
41168;DHT22;26906;45.658;9.272;2024-01-27T10:05:12;10.90;99.90
41168;DHT22;26906;45.658;9.272;2024-01-27T10:07:39;11.00;99.90
41168;DHT22;26906;45.658;9.272;2024-01-27T10:10:06;11.00;99.90
41168;DHT22;26906;45.658;9.272;2024-01-27T10:12:40;11.10;99.90
41168;DHT22;26906;45.658;9.272;2024-01-27T10:15:18;11.20;99.90
41168;DHT22;26906;45.658;9.272;2024-01-27T10:17:44;11.30;99.90
41168;DHT22;26906;45.658;9.272;2024-01-27T10:20:11;11.50;99.90
41168;DHT22;26906;45.658;9.272;2024-01-27T10:22:43;11.50;99.90
41168;DHT22;26906;45.658;9.272;2024-01-27T10:25:12;11.70;99.90
41168;DHT22;26906;45.658;9.272;2024-01-27T10:27:38;11.80;99.90
41168;DHT22;26906;45.658;9.272;2024-01-27T10:30:04;11.80;99.90
41168;DHT22;26906;45.658;9.272;2024-01-27T10:32:31;11.80;99.90
41168;DHT22;26906;45.658;9.272;2024-01-27T10:35:07;11.90;99.90
41168;DHT22;26906;45.658;9.272;2024-01-27T10:37:38;12.00;99.90
41168;DHT22;26906;45.658;9.272;2024-01-27T10:40:06;11.90;99.90
41168;DHT22;26906;45.658;9.272;2024-01-27T10:42:36;11.80;99.90
41168;DHT22;26906;45.658;9.272;2024-01-27T10:45:03;11.80;99.90
41168;DHT22;26906;45.658;9.272;2024-01-27T10:47:30;11.70;99.90
41168;DHT22;26906;45.658;9.272;2024-01-27T10:49:57;11.80;99.90
41168;DHT22;26906;45.658;9.272;2024-01-27T10:52:24;11.60;99.90
41168;DHT22;26906;45.658;9.272;2024-01-27T10:55:03;11.40;99.90
41168;DHT22;26906;45.658;9.272;2024-01-27T10:57:33;11.60;99.90
41168;DHT22;26906;45.658;9.272;2024-01-27T11:00:01;11.80;99.90
41168;DHT22;26906;45.658;9.272;2024-01-27T11:02:33;11.80;99.90
41168;DHT22;26906;45.658;9.272;2024-01-27T11:05:01;12.00;99.90
41168;DHT22;26906;45.658;9.272;2024-01-27T11:07:28;12.00;99.90
41168;DHT22;26906;45.658;9.272;2024-01-27T11:09:55;11.90;99.90
41168;DHT22;26906;45.658;9.272;2024-01-27T11:12:21;11.90;99.90
41168;DHT22;26906;45.658;9.272;2024-01-27T11:14:48;12.00;99.90
41168;DHT22;26906;45.658;9.272;2024-01-27T11:17:15;12.10;99.90
41168;DHT22;26906;45.658;9.272;2024-01-27T11:19:41;12.10;99.90
41168;DHT22;26906;45.658;9.272;2024-01-27T11:22:07;12.10;99.90
41168;DHT22;26906;45.658;9.272;2024-01-27T11:24:34;12.10;99.90
41168;DHT22;26906;45.658;9.272;2024-01-27T11:27:02;12.30;99.90
41168;DHT22;26906;45.658;9.272;2024-01-27T11:29:28;12.30;99.90
41168;DHT22;26906;45.658;9.272;2024-01-27T11:31:55;12.40;99.90
41168;DHT22;26906;45.658;9.272;2024-01-27T11:34:21;12.50;99.90
41168;DHT22;26906;45.658;9.272;2024-01-27T11:36:47;12.70;99.90
41168;DHT22;26906;45.658;9.272;2024-01-27T11:39:30;12.90;99.90
41168;DHT22;26906;45.658;9.272;2024-01-27T11:42:09;13.00;99.90
41168;DHT22;26906;45.658;9.272;2024-01-27T11:44:39;13.20;99.90
41168;DHT22;26906;45.658;9.272;2024-01-27T11:47:05;13.40;99.90
41168;DHT22;26906;45.658;9.272;2024-01-27T11:49:33;13.50;99.90
41168;DHT22;26906;45.658;9.272;2024-01-27T11:51:59;13.70;99.90
41168;DHT22;26906;45.658;9.272;2024-01-27T11:54:24;13.80;99.90
41168;DHT22;26906;45.658;9.272;2024-01-27T11:56:50;13.90;99.90
41168;DHT22;26906;45.658;9.272;2024-01-27T11:59:16;14.00;99.90
41168;DHT22;26906;45.658;9.272;2024-01-27T12:01:42;14.10;99.90
41168;DHT22;26906;45.658;9.272;2024-01-27T12:04:08;14.20;99.90
41168;DHT22;26906;45.658;9.272;2024-01-27T12:06:35;14.30;99.90
41168;DHT22;26906;45.658;9.272;2024-01-27T12:09:01;14.40;99.90
41168;DHT22;26906;45.658;9.272;2024-01-27T12:11:27;14.50;99.90
41168;DHT22;26906;45.658;9.272;2024-01-27T12:13:55;14.40;99.90
41168;DHT22;26906;45.658;9.272;2024-01-27T12:16:22;14.50;99.90
41168;DHT22;26906;45.658;9.272;2024-01-27T12:18:52;14.70;99.90
41168;DHT22;26906;45.658;9.272;2024-01-27T12:21:20;14.80;99.90
41168;DHT22;26906;45.658;9.272;2024-01-27T12:23:56;14.90;99.90
41168;DHT22;26906;45.658;9.272;2024-01-27T12:26:25;14.90;99.90
41168;DHT22;26906;45.658;9.272;2024-01-27T12:28:50;15.10;99.90
41168;DHT22;26906;45.658;9.272;2024-01-27T12:31:16;15.20;99.90
41168;DHT22;26906;45.658;9.272;2024-01-27T12:33:53;15.40;99.90
41168;DHT22;26906;45.658;9.272;2024-01-27T12:36:21;15.50;99.90
41168;DHT22;26906;45.658;9.272;2024-01-27T12:39:01;15.60;99.90
41168;DHT22;26906;45.658;9.272;2024-01-27T12:41:28;15.70;99.90
41168;DHT22;26906;45.658;9.272;2024-01-27T12:43:55;15.60;99.90
41168;DHT22;26906;45.658;9.272;2024-01-27T12:46:22;15.70;99.90
41168;DHT22;26906;45.658;9.272;2024-01-27T12:48:48;15.80;99.90
41168;DHT22;26906;45.658;9.272;2024-01-27T12:51:14;15.90;99.90
41168;DHT22;26906;45.658;9.272;2024-01-27T12:53:40;16.00;99.90
41168;DHT22;26906;45.658;9.272;2024-01-27T12:56:09;16.10;99.90
41168;DHT22;26906;45.658;9.272;2024-01-27T12:58:38;16.10;99.90
41168;DHT22;26906;45.658;9.272;2024-01-27T13:01:04;16.20;99.90
41168;DHT22;26906;45.658;9.272;2024-01-27T13:03:30;16.10;99.90
41168;DHT22;26906;45.658;9.272;2024-01-27T13:05:57;16.10;99.90
41168;DHT22;26906;45.658;9.272;2024-01-27T13:08:23;16.10;99.90
41168;DHT22;26906;45.658;9.272;2024-01-27T13:10:49;16.00;99.90
41168;DHT22;26906;45.658;9.272;2024-01-27T13:13:16;16.00;99.90
41168;DHT22;26906;45.658;9.272;2024-01-27T13:15:43;16.10;99.90
41168;DHT22;26906;45.658;9.272;2024-01-27T13:18:09;16.20;99.90
41168;DHT22;26906;45.658;9.272;2024-01-27T13:20:39;16.10;99.90
41168;DHT22;26906;45.658;9.272;2024-01-27T13:23:08;16.00;99.90
41168;DHT22;26906;45.658;9.272;2024-01-27T13:25:33;16.00;99.90
41168;DHT22;26906;45.658;9.272;2024-01-27T13:27:59;16.10;99.90
41168;DHT22;26906;45.658;9.272;2024-01-27T13:30:25;16.10;99.90
41168;DHT22;26906;45.658;9.272;2024-01-27T13:32:52;16.10;99.90
41168;DHT22;26906;45.658;9.272;2024-01-27T13:35:18;16.00;99.90
41168;DHT22;26906;45.658;9.272;2024-01-27T13:37:43;16.10;99.90
41168;DHT22;26906;45.658;9.272;2024-01-27T13:40:11;16.10;99.90
41168;DHT22;26906;45.658;9.272;2024-01-27T13:42:37;16.00;99.90
41168;DHT22;26906;45.658;9.272;2024-01-27T13:45:03;15.90;99.90
41168;DHT22;26906;45.658;9.272;2024-01-27T13:47:30;15.80;99.90
41168;DHT22;26906;45.658;9.272;2024-01-27T13:49:56;15.80;99.90
41168;DHT22;26906;45.658;9.272;2024-01-27T13:52:23;15.70;99.90
41168;DHT22;26906;45.658;9.272;2024-01-27T13:54:48;15.70;99.90
41168;DHT22;26906;45.658;9.272;2024-01-27T13:57:15;15.70;99.90
41168;DHT22;26906;45.658;9.272;2024-01-27T13:59:41;15.80;99.90
41168;DHT22;26906;45.658;9.272;2024-01-27T14:02:06;15.70;99.90
41168;DHT22;26906;45.658;9.272;2024-01-27T14:04:33;15.70;99.90
41168;DHT22;26906;45.658;9.272;2024-01-27T14:06:59;15.70;99.90
41168;DHT22;26906;45.658;9.272;2024-01-27T14:09:33;15.50;99.90
41168;DHT22;26906;45.658;9.272;2024-01-27T14:12:00;15.40;99.90
41168;DHT22;26906;45.658;9.272;2024-01-27T14:14:26;15.30;99.90
41168;DHT22;26906;45.658;9.272;2024-01-27T14:16:54;15.40;99.90
41168;DHT22;26906;45.658;9.272;2024-01-27T14:19:19;15.40;99.90
41168;DHT22;26906;45.658;9.272;2024-01-27T14:21:46;15.40;99.90
41168;DHT22;26906;45.658;9.272;2024-01-27T14:24:12;15.40;99.90
41168;DHT22;26906;45.658;9.272;2024-01-27T14:26:38;15.40;99.90
41168;DHT22;26906;45.658;9.272;2024-01-27T14:29:05;15.40;99.90
41168;DHT22;26906;45.658;9.272;2024-01-27T14:31:32;15.40;99.90
41168;DHT22;26906;45.658;9.272;2024-01-27T14:34:01;15.40;99.90
41168;DHT22;26906;45.658;9.272;2024-01-27T14:36:26;15.30;99.90
41168;DHT22;26906;45.658;9.272;2024-01-27T14:38:52;15.30;99.90
41168;DHT22;26906;45.658;9.272;2024-01-27T14:41:18;15.20;99.90
41168;DHT22;26906;45.658;9.272;2024-01-27T14:43:43;15.20;99.90
41168;DHT22;26906;45.658;9.272;2024-01-27T14:46:09;15.20;99.90
41168;DHT22;26906;45.658;9.272;2024-01-27T14:48:35;15.10;99.90
41168;DHT22;26906;45.658;9.272;2024-01-27T14:51:02;15.10;99.90
41168;DHT22;26906;45.658;9.272;2024-01-27T14:53:29;15.00;99.90
41168;DHT22;26906;45.658;9.272;2024-01-27T14:55:55;15.00;99.90
41168;DHT22;26906;45.658;9.272;2024-01-27T14:58:21;14.90;99.90
41168;DHT22;26906;45.658;9.272;2024-01-27T15:00:47;14.70;99.90
41168;DHT22;26906;45.658;9.272;2024-01-27T15:03:21;14.60;99.90
41168;DHT22;26906;45.658;9.272;2024-01-27T15:05:50;14.70;99.90
41168;DHT22;26906;45.658;9.272;2024-01-27T15:08:17;14.60;99.90
41168;DHT22;26906;45.658;9.272;2024-01-27T15:10:43;14.50;99.90
41168;DHT22;26906;45.658;9.272;2024-01-27T15:13:10;14.50;99.90
41168;DHT22;26906;45.658;9.272;2024-01-27T15:15:39;14.30;99.90
41168;DHT22;26906;45.658;9.272;2024-01-27T15:18:06;14.20;99.90
41168;DHT22;26906;45.658;9.272;2024-01-27T15:20:32;14.20;99.90
41168;DHT22;26906;45.658;9.272;2024-01-27T15:22:58;14.10;99.90
41168;DHT22;26906;45.658;9.272;2024-01-27T15:25:25;14.10;99.90
41168;DHT22;26906;45.658;9.272;2024-01-27T15:27:54;14.10;99.90
41168;DHT22;26906;45.658;9.272;2024-01-27T15:30:21;13.90;99.90
41168;DHT22;26906;45.658;9.272;2024-01-27T15:32:48;13.90;99.90
41168;DHT22;26906;45.658;9.272;2024-01-27T15:35:14;13.80;99.90
41168;DHT22;26906;45.658;9.272;2024-01-27T15:37:40;13.70;99.90
41168;DHT22;26906;45.658;9.272;2024-01-27T15:40:06;13.50;99.90
41168;DHT22;26906;45.658;9.272;2024-01-27T15:42:32;13.50;99.90
41168;DHT22;26906;45.658;9.272;2024-01-27T15:44:58;13.40;99.90
41168;DHT22;26906;45.658;9.272;2024-01-27T15:47:24;13.30;99.90
41168;DHT22;26906;45.658;9.272;2024-01-27T15:49:53;13.30;99.90
41168;DHT22;26906;45.658;9.272;2024-01-27T15:52:25;13.10;99.90
41168;DHT22;26906;45.658;9.272;2024-01-27T15:54:51;13.00;99.90
41168;DHT22;26906;45.658;9.272;2024-01-27T15:57:16;12.90;99.90
41168;DHT22;26906;45.658;9.272;2024-01-27T15:59:45;12.80;99.90
41168;DHT22;26906;45.658;9.272;2024-01-27T16:02:12;12.70;99.90
41168;DHT22;26906;45.658;9.272;2024-01-27T16:04:37;12.70;99.90
41168;DHT22;26906;45.658;9.272;2024-01-27T16:07:03;12.60;99.90
41168;DHT22;26906;45.658;9.272;2024-01-27T16:12:25;12.40;99.90
41168;DHT22;26906;45.658;9.272;2024-01-27T16:14:57;12.30;99.90
41168;DHT22;26906;45.658;9.272;2024-01-27T16:17:27;12.20;99.90
41168;DHT22;26906;45.658;9.272;2024-01-27T16:19:53;12.10;99.90
41168;DHT22;26906;45.658;9.272;2024-01-27T16:22:21;12.10;99.90
41168;DHT22;26906;45.658;9.272;2024-01-27T16:24:50;11.90;99.90
41168;DHT22;26906;45.658;9.272;2024-01-27T16:27:17;11.80;99.90
41168;DHT22;26906;45.658;9.272;2024-01-27T16:29:43;11.60;99.90
41168;DHT22;26906;45.658;9.272;2024-01-27T16:32:09;11.70;99.90
41168;DHT22;26906;45.658;9.272;2024-01-27T16:34:35;11.60;99.90
41168;DHT22;26906;45.658;9.272;2024-01-27T16:37:03;11.50;99.90
41168;DHT22;26906;45.658;9.272;2024-01-27T16:39:29;11.40;99.90
41168;DHT22;26906;45.658;9.272;2024-01-27T16:41:54;11.30;99.90
41168;DHT22;26906;45.658;9.272;2024-01-27T16:44:20;11.30;99.90
41168;DHT22;26906;45.658;9.272;2024-01-27T16:46:49;11.20;99.90
41168;DHT22;26906;45.658;9.272;2024-01-27T16:49:15;11.20;99.90
41168;DHT22;26906;45.658;9.272;2024-01-27T16:51:40;11.20;99.90
41168;DHT22;26906;45.658;9.272;2024-01-27T16:54:06;11.10;99.90
41168;DHT22;26906;45.658;9.272;2024-01-27T16:56:32;11.10;99.90
41168;DHT22;26906;45.658;9.272;2024-01-27T16:58:58;11.00;99.90
41168;DHT22;26906;45.658;9.272;2024-01-27T17:01:24;10.90;99.90
41168;DHT22;26906;45.658;9.272;2024-01-27T17:03:49;10.80;99.90
41168;DHT22;26906;45.658;9.272;2024-01-27T17:06:15;10.80;99.90
41168;DHT22;26906;45.658;9.272;2024-01-27T17:08:41;10.70;99.90
41168;DHT22;26906;45.658;9.272;2024-01-27T17:11:06;10.70;99.90
41168;DHT22;26906;45.658;9.272;2024-01-27T17:13:32;10.60;99.90
41168;DHT22;26906;45.658;9.272;2024-01-27T17:15:58;10.50;99.90
41168;DHT22;26906;45.658;9.272;2024-01-27T17:18:25;10.50;99.90
41168;DHT22;26906;45.658;9.272;2024-01-27T17:20:50;10.40;99.90
41168;DHT22;26906;45.658;9.272;2024-01-27T17:23:17;10.40;99.90
41168;DHT22;26906;45.658;9.272;2024-01-27T17:25:43;10.30;99.90
41168;DHT22;26906;45.658;9.272;2024-01-27T17:28:10;10.30;99.90
41168;DHT22;26906;45.658;9.272;2024-01-27T17:30:38;10.20;99.90
41168;DHT22;26906;45.658;9.272;2024-01-27T17:33:04;10.00;99.90
41168;DHT22;26906;45.658;9.272;2024-01-27T17:35:30;10.10;99.90
41168;DHT22;26906;45.658;9.272;2024-01-27T17:37:56;10.20;99.90
41168;DHT22;26906;45.658;9.272;2024-01-27T17:40:21;10.20;99.90
41168;DHT22;26906;45.658;9.272;2024-01-27T17:42:47;10.20;99.90
41168;DHT22;26906;45.658;9.272;2024-01-27T17:45:13;10.10;99.90
41168;DHT22;26906;45.658;9.272;2024-01-27T17:47:39;10.00;99.90
41168;DHT22;26906;45.658;9.272;2024-01-27T17:50:07;10.00;99.90
41168;DHT22;26906;45.658;9.272;2024-01-27T17:52:33;9.90;99.90
41168;DHT22;26906;45.658;9.272;2024-01-27T17:54:59;9.90;99.90
41168;DHT22;26906;45.658;9.272;2024-01-27T17:57:25;9.90;99.90
41168;DHT22;26906;45.658;9.272;2024-01-27T17:59:50;9.80;99.90
41168;DHT22;26906;45.658;9.272;2024-01-27T18:02:16;9.70;99.90
41168;DHT22;26906;45.658;9.272;2024-01-27T18:04:42;9.80;99.90
41168;DHT22;26906;45.658;9.272;2024-01-27T18:07:07;9.80;99.90
41168;DHT22;26906;45.658;9.272;2024-01-27T18:09:34;9.90;99.90
41168;DHT22;26906;45.658;9.272;2024-01-27T18:12:00;9.90;99.90
41168;DHT22;26906;45.658;9.272;2024-01-27T18:14:26;9.90;99.90
41168;DHT22;26906;45.658;9.272;2024-01-27T18:16:53;9.80;99.90
41168;DHT22;26906;45.658;9.272;2024-01-27T18:19:19;9.70;99.90
41168;DHT22;26906;45.658;9.272;2024-01-27T18:21:45;9.70;99.90
41168;DHT22;26906;45.658;9.272;2024-01-27T18:24:11;9.70;99.90
41168;DHT22;26906;45.658;9.272;2024-01-27T18:26:37;9.60;99.90
41168;DHT22;26906;45.658;9.272;2024-01-27T18:29:03;9.40;99.90
41168;DHT22;26906;45.658;9.272;2024-01-27T18:31:28;9.40;99.90
41168;DHT22;26906;45.658;9.272;2024-01-27T18:33:54;9.30;99.90
41168;DHT22;26906;45.658;9.272;2024-01-27T18:36:21;9.40;99.90
41168;DHT22;26906;45.658;9.272;2024-01-27T18:38:47;9.40;99.90
41168;DHT22;26906;45.658;9.272;2024-01-27T18:41:13;9.30;99.90
41168;DHT22;26906;45.658;9.272;2024-01-27T18:43:39;9.20;99.90
41168;DHT22;26906;45.658;9.272;2024-01-27T18:46:05;9.30;99.90
41168;DHT22;26906;45.658;9.272;2024-01-27T18:48:37;9.30;99.90
41168;DHT22;26906;45.658;9.272;2024-01-27T18:51:03;9.40;99.90
41168;DHT22;26906;45.658;9.272;2024-01-27T18:53:33;9.40;99.90
41168;DHT22;26906;45.658;9.272;2024-01-27T18:56:00;9.30;99.90
41168;DHT22;26906;45.658;9.272;2024-01-27T18:58:26;9.30;99.90
41168;DHT22;26906;45.658;9.272;2024-01-27T19:00:51;9.30;99.90
41168;DHT22;26906;45.658;9.272;2024-01-27T19:03:17;9.30;99.90
41168;DHT22;26906;45.658;9.272;2024-01-27T19:05:43;9.20;99.90
41168;DHT22;26906;45.658;9.272;2024-01-27T19:08:11;9.40;99.90
41168;DHT22;26906;45.658;9.272;2024-01-27T19:10:38;9.20;99.90
41168;DHT22;26906;45.658;9.272;2024-01-27T19:13:04;9.10;99.90
41168;DHT22;26906;45.658;9.272;2024-01-27T19:15:30;9.00;99.90
41168;DHT22;26906;45.658;9.272;2024-01-27T19:17:58;9.00;99.90
41168;DHT22;26906;45.658;9.272;2024-01-27T19:20:24;9.00;99.90
41168;DHT22;26906;45.658;9.272;2024-01-27T19:22:50;9.10;99.90
41168;DHT22;26906;45.658;9.272;2024-01-27T19:25:17;9.20;99.90
41168;DHT22;26906;45.658;9.272;2024-01-27T19:27:43;9.20;99.90
41168;DHT22;26906;45.658;9.272;2024-01-27T19:30:09;9.20;99.90
41168;DHT22;26906;45.658;9.272;2024-01-27T19:32:36;9.20;99.90
41168;DHT22;26906;45.658;9.272;2024-01-27T19:35:03;9.10;99.90
41168;DHT22;26906;45.658;9.272;2024-01-27T19:37:29;9.10;99.90
41168;DHT22;26906;45.658;9.272;2024-01-27T19:39:54;9.10;99.90
41168;DHT22;26906;45.658;9.272;2024-01-27T19:42:20;9.10;99.90
41168;DHT22;26906;45.658;9.272;2024-01-27T19:44:46;9.10;99.90
41168;DHT22;26906;45.658;9.272;2024-01-27T19:47:12;9.20;99.90
41168;DHT22;26906;45.658;9.272;2024-01-27T19:49:37;9.20;99.90
41168;DHT22;26906;45.658;9.272;2024-01-27T19:52:07;9.20;99.90
41168;DHT22;26906;45.658;9.272;2024-01-27T19:54:33;9.10;99.90
41168;DHT22;26906;45.658;9.272;2024-01-27T19:57:00;9.00;99.90
41168;DHT22;26906;45.658;9.272;2024-01-27T19:59:27;8.90;99.90
41168;DHT22;26906;45.658;9.272;2024-01-27T20:01:55;8.90;99.90
41168;DHT22;26906;45.658;9.272;2024-01-27T20:04:22;9.00;99.90
41168;DHT22;26906;45.658;9.272;2024-01-27T20:06:49;9.10;99.90
41168;DHT22;26906;45.658;9.272;2024-01-27T20:09:20;9.10;99.90
41168;DHT22;26906;45.658;9.272;2024-01-27T20:11:56;9.10;99.90
41168;DHT22;26906;45.658;9.272;2024-01-27T20:14:23;9.10;99.90
41168;DHT22;26906;45.658;9.272;2024-01-27T20:16:51;9.00;99.90
41168;DHT22;26906;45.658;9.272;2024-01-27T20:19:19;8.90;99.90
41168;DHT22;26906;45.658;9.272;2024-01-27T20:21:48;8.90;99.90
41168;DHT22;26906;45.658;9.272;2024-01-27T20:24:15;8.70;99.90
41168;DHT22;26906;45.658;9.272;2024-01-27T20:26:44;8.70;99.90
41168;DHT22;26906;45.658;9.272;2024-01-27T20:29:24;8.60;99.90
41168;DHT22;26906;45.658;9.272;2024-01-27T20:31:52;8.70;99.90
41168;DHT22;26906;45.658;9.272;2024-01-27T20:34:22;8.70;99.90
41168;DHT22;26906;45.658;9.272;2024-01-27T20:36:49;8.80;99.90
41168;DHT22;26906;45.658;9.272;2024-01-27T20:39:15;8.80;99.90
41168;DHT22;26906;45.658;9.272;2024-01-27T20:41:41;8.90;99.90
41168;DHT22;26906;45.658;9.272;2024-01-27T20:44:08;8.70;99.90
41168;DHT22;26906;45.658;9.272;2024-01-27T20:46:33;8.50;99.90
41168;DHT22;26906;45.658;9.272;2024-01-27T20:48:59;8.40;99.90
41168;DHT22;26906;45.658;9.272;2024-01-27T20:51:25;8.20;99.90
41168;DHT22;26906;45.658;9.272;2024-01-27T20:53:51;8.10;99.90
41168;DHT22;26906;45.658;9.272;2024-01-27T20:56:17;8.10;99.90
41168;DHT22;26906;45.658;9.272;2024-01-27T20:58:43;8.10;99.90
41168;DHT22;26906;45.658;9.272;2024-01-27T21:01:10;8.20;99.90
41168;DHT22;26906;45.658;9.272;2024-01-27T21:03:36;8.30;99.90
41168;DHT22;26906;45.658;9.272;2024-01-27T21:06:02;8.20;99.90
41168;DHT22;26906;45.658;9.272;2024-01-27T21:08:28;8.10;99.90
41168;DHT22;26906;45.658;9.272;2024-01-27T21:10:54;8.10;99.90
41168;DHT22;26906;45.658;9.272;2024-01-27T21:13:21;8.20;99.90
41168;DHT22;26906;45.658;9.272;2024-01-27T21:15:46;8.20;99.90
41168;DHT22;26906;45.658;9.272;2024-01-27T21:18:12;8.10;99.90
41168;DHT22;26906;45.658;9.272;2024-01-27T21:20:39;8.00;99.90
41168;DHT22;26906;45.658;9.272;2024-01-27T21:23:06;8.10;99.90
41168;DHT22;26906;45.658;9.272;2024-01-27T21:25:33;7.90;99.90
41168;DHT22;26906;45.658;9.272;2024-01-27T21:27:59;7.80;99.90
41168;DHT22;26906;45.658;9.272;2024-01-27T21:30:24;7.60;99.90
41168;DHT22;26906;45.658;9.272;2024-01-27T21:32:50;7.70;99.90
41168;DHT22;26906;45.658;9.272;2024-01-27T21:35:16;7.70;99.90
41168;DHT22;26906;45.658;9.272;2024-01-27T21:37:42;7.80;99.90
41168;DHT22;26906;45.658;9.272;2024-01-27T21:40:11;7.70;99.90
41168;DHT22;26906;45.658;9.272;2024-01-27T21:42:37;7.70;99.90
41168;DHT22;26906;45.658;9.272;2024-01-27T21:45:03;7.60;99.90
41168;DHT22;26906;45.658;9.272;2024-01-27T21:47:29;7.40;99.90
41168;DHT22;26906;45.658;9.272;2024-01-27T21:49:56;7.20;99.90
41168;DHT22;26906;45.658;9.272;2024-01-27T21:52:21;7.20;99.90
41168;DHT22;26906;45.658;9.272;2024-01-27T21:54:47;7.30;99.90
41168;DHT22;26906;45.658;9.272;2024-01-27T21:57:12;7.10;99.90
41168;DHT22;26906;45.658;9.272;2024-01-27T21:59:38;7.00;99.90
41168;DHT22;26906;45.658;9.272;2024-01-27T22:02:04;6.90;99.90
41168;DHT22;26906;45.658;9.272;2024-01-27T22:04:29;7.00;99.90
41168;DHT22;26906;45.658;9.272;2024-01-27T22:06:55;7.00;99.90
41168;DHT22;26906;45.658;9.272;2024-01-27T22:09:22;6.90;99.90
41168;DHT22;26906;45.658;9.272;2024-01-27T22:11:48;6.90;99.90
41168;DHT22;26906;45.658;9.272;2024-01-27T22:14:15;6.80;99.90
41168;DHT22;26906;45.658;9.272;2024-01-27T22:16:40;6.80;99.90
41168;DHT22;26906;45.658;9.272;2024-01-27T22:19:06;6.70;99.90
41168;DHT22;26906;45.658;9.272;2024-01-27T22:21:32;6.80;99.90
41168;DHT22;26906;45.658;9.272;2024-01-27T22:23:58;6.80;99.90
41168;DHT22;26906;45.658;9.272;2024-01-27T22:26:24;6.90;99.90
41168;DHT22;26906;45.658;9.272;2024-01-27T22:28:49;6.90;99.90
